Terminal Aerodrome Forecast
Issued by NWS

Home | Current Version | Previous Version | Text Only | Print | Product List | Glossary On
Versions: 1 2 3 4 5 6 7 8 9 10 11 12 13 14
395
FTUS42 KTAE 261123
TAFECP
TAF
KECP 261123Z 2612/2712 14008KT 1/2SM FG VV002
     FM261215 18012KT P6SM SCT040
     FM270000 18005KT P6SM FEW040
     FM270900 00000KT 2SM BR BKN005=

USA.gov is the U.S. government's official web portal to all federal, state and local government web resources and services.